Time;durP1;ratioP1;P1;durP2;ratioP2;P2;SDS_P1;SDS_P2;PMS_P1;PMS_P2;Temp;Humidity;BMP_temperature;BMP_pressure;BME280_temperature;BME280_humidity;BME280_pressure;Samples;Min_cycle;Max_cycle;Signal;HPM_P1;HPM_P2
2023/03/14 00:01:56;;;;;;;414.45;319.30;;;10.30;99.90;;;10.38;100.00;98623.91;4948804;28;20336;-79
2023/03/14 00:04:23;;;;;;;413.92;300.95;;;10.30;99.90;;;10.30;100.00;98627.59;4950636;28;20234;-79
2023/03/14 00:06:50;;;;;;;412.02;301.63;;;10.30;99.90;;;10.38;100.00;98612.47;4952483;28;20312;-78
2023/03/14 00:09:17;;;;;;;408.90;294.73;;;10.30;99.90;;;10.43;100.00;98624.72;4945747;28;20273;-79
2023/03/14 00:11:45;;;;;;;413.33;308.75;;;10.30;99.90;;;10.39;100.00;98616.84;4964691;28;20273;-79
2023/03/14 00:14:12;;;;;;;413.73;301.42;;;10.30;99.90;;;10.38;100.00;98600.13;4951517;28;20237;-79
2023/03/14 00:16:39;;;;;;;410.65;302.58;;;10.30;99.90;;;10.36;100.00;98588.72;4951920;28;20234;-79
2023/03/14 00:19:07;;;;;;;413.63;314.33;;;10.30;99.90;;;10.32;100.00;98605.50;4947279;28;20241;-80
2023/03/14 00:21:34;;;;;;;412.50;309.17;;;10.30;99.90;;;10.32;100.00;98602.88;4952320;28;20297;-79
2023/03/14 00:24:01;;;;;;;411.13;308.10;;;10.30;99.90;;;10.33;100.00;98612.53;4953031;28;20659;-78
2023/03/14 00:26:28;;;;;;;418.67;313.60;;;10.20;99.90;;;10.33;100.00;98609.03;4952459;28;20273;-79
2023/03/14 00:28:55;;;;;;;415.02;307.15;;;10.20;99.90;;;10.30;100.00;98617.88;4950700;28;20245;-79
2023/03/14 00:31:23;;;;;;;413.13;314.15;;;10.20;99.90;;;10.34;100.00;98621.34;4952388;28;20233;-78
2023/03/14 00:33:52;;;;;;;416.88;303.13;;;10.20;99.90;;;10.27;100.00;98604.72;4948516;28;20234;-79
2023/03/14 00:36:20;;;;;;;408.00;288.30;;;10.20;99.90;;;10.25;100.00;98610.03;4952327;28;20237;-79
2023/03/14 00:38:51;;;;;;;404.55;293.55;;;10.10;99.90;;;10.29;100.00;98596.78;4945155;28;20237;-79
2023/03/14 00:41:22;;;;;;;409.40;300.27;;;10.20;99.90;;;10.30;100.00;98594.09;4966548;28;20257;-80
2023/03/14 00:43:51;;;;;;;412.60;304.13;;;10.20;99.90;;;10.24;100.00;98591.59;4952762;28;20292;-79
2023/03/14 00:46:18;;;;;;;404.02;292.98;;;10.20;99.90;;;10.19;100.00;98591.63;4949597;28;20312;-80
2023/03/14 00:48:46;;;;;;;405.05;291.95;;;10.10;99.90;;;10.18;100.00;98611.03;4948686;28;20242;-79
2023/03/14 00:51:14;;;;;;;402.63;290.73;;;10.20;99.90;;;10.24;100.00;98618.00;4958253;28;20225;-79
2023/03/14 00:53:43;;;;;;;405.05;281.08;;;10.20;99.90;;;10.25;100.00;98617.09;4952522;28;20301;-79
2023/03/14 00:56:12;;;;;;;405.38;289.35;;;10.20;99.90;;;10.29;100.00;98623.19;4952216;28;20257;-80
2023/03/14 00:58:39;;;;;;;399.33;273.60;;;10.20;99.90;;;10.25;100.00;98617.97;4952036;28;20233;-79
2023/03/14 01:01:10;;;;;;;405.20;282.52;;;10.10;99.90;;;10.19;100.00;98618.06;4952293;28;20238;-78
2023/03/14 01:03:38;;;;;;;401.92;278.58;;;;;;;10.20;100.00;98629.53;4952193;28;20269;-78
2023/03/14 01:06:17;;;;;;;401.13;274.50;;;10.20;99.90;;;10.26;100.00;98627.63;4951187;28;20229;-78
2023/03/14 01:08:45;;;;;;;408.55;287.15;;;10.10;99.90;;;10.25;100.00;98625.03;4944450;28;20245;-78
2023/03/14 01:11:23;;;;;;;409.60;295.05;;;10.20;99.90;;;10.25;100.00;98617.09;4951276;28;20237;-79
2023/03/14 01:13:51;;;;;;;403.52;288.17;;;10.20;99.90;;;10.29;100.00;98604.69;4949691;28;20245;-80
2023/03/14 01:16:20;;;;;;;398.45;283.10;;;10.20;99.90;;;10.29;100.00;98608.22;4952072;28;20610;-81
2023/03/14 01:18:48;;;;;;;406.75;283.15;;;10.20;99.90;;;10.20;100.00;98601.34;4952459;28;20264;-78
2023/03/14 01:21:18;;;;;;;398.77;286.13;;;10.20;99.90;;;10.24;100.00;98608.31;4952205;28;20244;-79
2023/03/14 01:23:46;;;;;;;397.23;271.25;;;10.20;99.90;;;10.23;100.00;98601.28;4935429;29;20237;-78
2023/03/14 01:26:21;;;;;;;408.30;294.95;;;10.10;99.90;;;10.19;100.00;98602.19;4952351;28;20233;-78
2023/03/14 01:28:50;;;;;;;408.48;293.60;;;10.20;99.90;;;10.24;100.00;98603.03;4951383;28;20311;-79
2023/03/14 01:31:17;;;;;;;402.23;289.50;;;10.20;99.90;;;10.25;100.00;98595.97;4953021;28;20236;-78
2023/03/14 01:33:46;;;;;;;405.23;277.65;;;10.20;99.90;;;10.21;100.00;98592.50;4952688;28;20249;-79
2023/03/14 01:36:13;;;;;;;404.98;293.92;;;10.10;99.90;;;10.16;100.00;98596.09;4952777;28;20237;-80
2023/03/14 01:38:41;;;;;;;406.48;282.60;;;10.10;99.90;;;10.18;100.00;98587.25;4950918;28;20774;-79
2023/03/14 01:41:15;;;;;;;393.98;274.05;;;10.10;99.90;;;10.21;100.00;98592.50;4949861;28;20320;-79
2023/03/14 01:43:42;;;;;;;409.15;291.30;;;10.10;99.90;;;10.17;100.00;98580.22;4951804;28;20682;-79
2023/03/14 01:46:48;;;;;;;411.98;301.83;;;10.10;99.90;;;10.14;100.00;98585.56;4952172;28;20296;-78
2023/03/14 01:49:31;;;;;;;404.60;280.25;;;;;;;10.02;100.00;98584.94;4941630;28;20238;-79
2023/03/14 01:52:06;;;;;;;403.60;275.95;;;10.00;99.90;;;10.02;100.00;98587.56;4950486;28;20288;-81
2023/03/14 01:54:37;;;;;;;415.10;292.73;;;9.90;99.90;;;10.03;100.00;98584.03;4933622;28;20328;-82
2023/03/14 01:57:19;;;;;;;413.17;284.05;;;10.00;99.90;;;10.08;100.00;98569.84;4951484;28;20259;-80
2023/03/14 02:00:11;;;;;;;400.52;269.15;;;9.90;99.90;;;10.13;100.00;98575.91;4951677;28;20229;-81
2023/03/14 02:02:45;;;;;;;413.33;280.83;;;10.00;99.90;;;10.05;100.00;98554.06;4949313;28;20254;-81
2023/03/14 02:05:19;;;;;;;399.00;270.58;;;9.90;99.90;;;9.99;100.00;98542.75;4947608;28;20242;-80
2023/03/14 02:07:52;;;;;;;409.00;295.70;;;9.90;99.90;;;9.94;100.00;98540.19;4959458;28;20267;-80
2023/03/14 02:10:24;;;;;;;399.52;279.23;;;9.90;99.90;;;9.94;100.00;98533.13;4949525;28;20280;-80
2023/03/14 02:12:53;;;;;;;400.85;272.85;;;9.90;99.90;;;10.02;100.00;98533.00;4943782;28;20242;-79
2023/03/14 02:15:20;;;;;;;401.05;279.70;;;10.00;99.90;;;10.06;100.00;98525.88;4945597;28;20234;-81
2023/03/14 02:17:48;;;;;;;403.00;277.45;;;9.90;99.90;;;10.03;100.00;98520.66;4943972;28;20238;-82
2023/03/14 02:20:48;;;;;;;396.38;270.40;;;9.90;99.90;;;10.04;100.00;98522.41;4951165;28;20265;-79
2023/03/14 02:23:23;;;;;;;393.98;261.05;;;9.90;99.90;;;9.98;100.00;98518.09;4956623;28;20292;-80
2023/03/14 02:26:08;;;;;;;402.52;278.95;;;9.90;99.90;;;9.97;100.00;98510.22;4949545;28;20244;-80
2023/03/14 02:28:35;;;;;;;406.13;272.85;;;9.90;99.90;;;9.94;100.00;98508.50;4948800;28;20268;-81
2023/03/14 02:31:03;;;;;;;398.35;272.13;;;;;;;10.04;100.00;98494.22;4943085;28;20257;-80
2023/03/14 02:33:32;;;;;;;409.63;284.80;;;;;;;9.97;100.00;98481.16;4952083;28;20247;-81
2023/03/14 02:36:05;;;;;;;401.67;266.65;;;10.00;99.90;;;10.09;100.00;98480.91;4946558;28;20269;-80
2023/03/14 02:39:03;;;;;;;399.85;273.55;;;10.00;99.90;;;10.11;100.00;98476.47;4948349;28;20233;-80
2023/03/14 02:41:31;;;;;;;405.30;278.10;;;10.20;99.90;;;10.38;100.00;98472.44;4925722;28;20655;-81
2023/03/14 02:43:58;;;;;;;397.95;268.05;;;10.60;99.90;;;10.71;100.00;98468.19;4960083;28;20264;-78
2023/03/14 02:46:25;;;;;;;407.10;290.70;;;10.50;99.90;;;10.57;100.00;98450.00;4953027;28;20237;-81
2023/03/14 02:49:02;;;;;;;401.42;286.67;;;10.50;99.90;;;10.71;100.00;98439.13;4954597;28;20260;-80
2023/03/14 02:51:29;;;;;;;405.77;284.42;;;10.60;99.90;;;10.75;100.00;98425.78;4952947;28;20289;-80
2023/03/14 02:53:57;;;;;;;404.85;275.23;;;10.60;99.90;;;10.77;100.00;98404.59;4950544;28;20238;-80
2023/03/14 02:56:24;;;;;;;452.77;304.27;;;;;;;10.83;100.00;98380.66;4968865;23;20226;-74
2023/03/14 02:58:51;;;;;;;423.23;307.20;;;10.60;99.90;;;10.66;100.00;98364.34;4940829;28;20289;-75
2023/03/14 03:01:18;;;;;;;402.77;282.15;;;10.50;99.90;;;10.70;100.00;98345.72;4951309;28;20633;-75
2023/03/14 03:03:45;;;;;;;411.10;303.00;;;10.60;99.90;;;10.73;100.00;98339.50;4934050;28;20242;-75
2023/03/14 03:06:12;;;;;;;409.88;295.40;;;10.70;99.90;;;10.82;99.32;98342.78;4933872;28;20239;-74
2023/03/14 03:08:40;;;;;;;401.23;288.45;;;10.60;99.90;;;10.62;99.34;98323.91;4933791;28;20257;-75
2023/03/14 03:11:07;;;;;;;399.17;284.42;;;10.60;99.90;;;10.59;99.06;98323.97;4932657;29;20246;-75
2023/03/14 03:13:34;;;;;;;405.73;298.05;;;10.50;99.90;;;10.66;98.60;98306.19;4929857;29;20421;-73
2023/03/14 03:16:03;;;;;;;406.50;292.55;;;10.60;99.90;;;10.55;98.85;98293.25;4934926;28;20321;-75
2023/03/14 03:18:30;;;;;;;404.88;289.92;;;10.50;99.90;;;10.57;98.43;98300.25;4935165;28;20246;-75
2023/03/14 03:21:03;;;;;;;404.42;286.00;;;10.50;99.90;;;10.69;97.34;98267.34;4934206;28;20326;-75
2023/03/14 03:23:30;;;;;;;410.95;296.20;;;10.50;99.90;;;10.46;97.98;98252.06;4928635;28;20258;-75
2023/03/14 03:25:58;;;;;;;404.63;296.00;;;10.40;99.90;;;10.37;98.45;98248.75;4934432;28;20261;-78
2023/03/14 03:28:25;;;;;;;398.80;281.10;;;10.30;99.90;;;10.51;97.20;98241.38;4929632;28;20238;-77
2023/03/14 03:30:52;;;;;;;400.80;287.33;;;10.40;99.90;;;10.52;97.11;98236.06;4934505;28;20307;-78
2023/03/14 03:33:19;;;;;;;411.20;294.98;;;10.40;99.90;;;10.36;97.83;98231.19;4932476;28;20234;-75
2023/03/14 03:35:49;;;;;;;402.13;278.95;;;10.30;99.90;;;10.50;95.93;98210.59;4932913;28;20317;-77
2023/03/14 03:38:16;;;;;;;397.23;268.25;;;10.40;99.90;;;10.46;95.55;98201.88;4928823;28;20234;-76
2023/03/14 03:40:44;;;;;;;399.58;279.15;;;10.40;99.90;;;10.55;94.68;98179.63;4918113;29;20334;-76
2023/03/14 03:43:11;;;;;;;401.45;276.15;;;10.40;99.90;;;10.29;95.39;98171.47;4936752;28;20262;-75
2023/03/14 03:45:38;;;;;;;406.27;288.55;;;10.30;99.90;;;10.52;93.92;98159.44;4933347;28;20238;-76
2023/03/14 03:48:05;;;;;;;404.25;288.92;;;10.40;99.90;;;10.53;93.02;98145.31;4932325;29;20246;-76
2023/03/14 03:50:32;;;;;;;405.65;298.73;;;10.40;99.90;;;10.50;92.79;98136.59;4928453;28;20266;-76
2023/03/14 03:53:00;;;;;;;408.15;301.13;;;10.40;99.90;;;10.48;92.59;98146.34;4929587;28;20737;-76
2023/03/14 03:55:27;;;;;;;408.60;289.10;;;10.40;99.90;;;10.51;92.59;98144.50;4926955;29;20248;-75
2023/03/14 03:57:55;;;;;;;423.85;294.02;;;10.40;99.90;;;10.31;93.12;98149.41;4930386;28;20304;-77
2023/03/14 04:00:22;;;;;;;407.73;292.73;;;10.30;99.90;;;10.39;92.93;98158.00;4931447;28;20258;-78
2023/03/14 04:02:49;;;;;;;403.98;285.65;;;10.30;99.90;;;10.38;93.25;98168.59;4932478;28;20234;-76
2023/03/14 04:05:16;;;;;;;402.90;287.52;;;10.30;99.90;;;10.22;93.45;98157.56;4930955;28;20313;-78
2023/03/14 04:07:43;;;;;;;401.27;276.17;;;10.20;99.90;;;10.14;94.45;98173.59;4929136;28;20242;-77
2023/03/14 04:10:10;;;;;;;406.95;285.70;;;10.10;99.90;;;10.23;93.96;98164.59;4932048;29;20231;-78
2023/03/14 04:12:37;;;;;;;410.30;295.05;;;10.10;99.90;;;10.20;94.31;98162.91;4927898;28;20273;-78
2023/03/14 04:15:05;;;;;;;401.27;281.23;;;10.10;99.90;;;10.20;93.84;98162.91;4933099;28;20325;-78
2023/03/14 04:17:32;;;;;;;403.73;277.73;;;10.10;99.90;;;10.23;93.79;98156.66;4928320;29;20230;-78
2023/03/14 04:19:59;;;;;;;398.83;266.20;;;10.10;99.90;;;10.27;93.30;98143.34;4931151;28;20286;-76
2023/03/14 04:22:26;;;;;;;401.75;272.00;;;10.20;99.90;;;10.35;92.27;98121.13;4936690;28;20240;-76
2023/03/14 04:24:53;;;;;;;410.95;283.58;;;10.30;99.90;;;10.25;92.62;98113.47;4926747;28;20238;-76
2023/03/14 04:27:20;;;;;;;402.20;282.27;;;10.20;99.90;;;10.15;93.19;98113.72;4933038;28;20235;-76
2023/03/14 04:29:47;;;;;;;406.50;276.38;;;10.10;99.90;;;10.12;93.21;98119.94;4930704;28;20265;-76
2023/03/14 04:32:14;;;;;;;398.40;271.25;;;10.00;99.90;;;10.12;93.19;98104.09;4933722;28;20325;-76
2023/03/14 04:34:41;;;;;;;399.73;273.33;;;10.00;99.90;;;10.06;93.57;98112.19;4933154;28;20242;-76
2023/03/14 04:37:08;;;;;;;416.33;280.38;;;10.10;99.90;;;10.20;93.60;98125.91;4930732;28;20322;-76
2023/03/14 04:39:35;;;;;;;413.30;290.40;;;10.10;99.90;;;10.10;94.43;98129.69;4930819;28;20399;-76
2023/03/14 04:42:02;;;;;;;395.55;277.23;;;10.10;99.90;;;10.15;94.11;98126.91;4927009;29;20258;-76
2023/03/14 04:44:29;;;;;;;405.88;280.45;;;10.00;99.90;;;10.11;94.53;98136.69;4933129;28;20277;-76
2023/03/14 04:46:57;;;;;;;397.63;268.38;;;10.00;99.90;;;10.06;95.48;98137.72;4931706;29;20262;-76
2023/03/14 04:49:24;;;;;;;396.05;272.50;;;10.10;99.90;;;10.14;95.47;98154.22;4933254;28;20266;-76
2023/03/14 04:51:51;;;;;;;399.13;268.70;;;10.00;99.90;;;10.19;94.74;98128.56;4933273;28;20636;-77
2023/03/14 04:54:18;;;;;;;400.15;270.50;;;10.10;99.90;;;10.08;95.11;98134.13;4932674;28;20238;-76
2023/03/14 04:56:45;;;;;;;407.55;274.20;;;10.10;99.90;;;10.02;95.55;98126.38;4932603;28;20261;-76
2023/03/14 04:59:12;;;;;;;399.27;266.05;;;10.00;99.90;;;10.19;94.76;98134.72;4931742;28;20322;-76
2023/03/14 05:01:39;;;;;;;401.75;268.77;;;10.10;99.90;;;10.21;94.17;98106.53;4932696;28;20242;-77
2023/03/14 05:04:06;;;;;;;398.05;266.42;;;10.20;99.90;;;10.03;95.34;98122.81;4933177;28;20234;-77
2023/03/14 05:06:33;;;;;;;407.70;276.85;;;10.00;99.90;;;9.92;97.07;98143.34;4929225;29;20334;-78
2023/03/14 05:09:00;;;;;;;398.15;264.88;;;9.90;99.90;;;9.86;97.70;98139.09;4924332;29;20235;-77
2023/03/14 05:11:27;;;;;;;401.67;283.52;;;9.80;99.90;;;9.92;98.36;98153.91;4932653;28;20258;-77
2023/03/14 05:13:55;;;;;;;405.70;273.67;;;9.80;99.90;;;9.90;98.87;98150.44;4931193;29;20254;-76
2023/03/14 05:16:22;;;;;;;399.33;266.98;;;9.80;99.90;;;9.89;99.59;98156.63;4931828;29;20230;-76
2023/03/14 05:18:51;;;;;;;401.30;271.05;;;9.80;99.90;;;9.89;99.65;98146.94;4931825;28;20249;-76
2023/03/14 05:21:18;;;;;;;394.25;253.02;;;9.80;99.90;;;9.92;100.00;98154.78;4928089;29;20251;-78
2023/03/14 05:23:46;;;;;;;407.55;264.90;;;9.90;99.90;;;9.95;100.00;98169.66;4930399;28;20246;-77
2023/03/14 05:26:13;;;;;;;400.13;260.08;;;9.90;99.90;;;10.03;100.00;98159.78;4927823;28;20241;-77
2023/03/14 05:28:40;;;;;;;406.88;269.75;;;9.90;99.90;;;9.94;100.00;98160.00;4930096;28;20249;-77
2023/03/14 05:31:09;;;;;;;397.15;261.55;;;9.90;99.90;;;9.91;100.00;98158.31;4932419;28;20253;-78
2023/03/14 05:33:36;;;;;;;403.08;268.60;;;9.90;99.90;;;9.95;100.00;98170.53;4932360;28;20238;-77
2023/03/14 05:36:04;;;;;;;401.50;262.02;;;9.90;99.90;;;9.94;100.00;98170.56;4931797;28;20281;-77
2023/03/14 05:38:32;;;;;;;398.25;264.02;;;9.90;99.90;;;9.90;100.00;98169.78;4931457;28;20671;-76
2023/03/14 05:40:59;;;;;;;398.42;268.80;;;9.90;99.90;;;10.07;100.00;98165.84;4932625;28;20297;-76
2023/03/14 05:43:27;;;;;;;406.48;264.50;;;10.00;99.90;;;10.04;100.00;98150.09;4931235;28;20243;-77
2023/03/14 05:45:54;;;;;;;416.67;279.30;;;10.00;99.90;;;10.08;99.25;98142.03;4929685;29;20293;-77
2023/03/14 05:48:21;;;;;;;404.38;279.92;;;10.00;99.90;;;10.18;98.29;98140.03;4929467;29;20341;-77
2023/03/14 05:50:54;;;;;;;404.90;271.17;;;10.00;99.90;;;10.02;99.14;98131.66;4932157;28;20302;-77
2023/03/14 05:53:21;;;;;;;400.50;264.63;;;10.00;99.90;;;10.05;98.53;98128.94;4932322;28;20242;-78
2023/03/14 05:55:54;;;;;;;400.15;268.33;;;10.00;99.90;;;9.97;99.14;98136.16;4923600;28;20238;-79
2023/03/14 05:58:24;;;;;;;398.38;261.80;;;10.00;99.90;;;10.22;97.26;98118.81;4930130;28;20606;-78
2023/03/14 06:00:51;;;;;;;400.25;271.20;;;10.10;99.90;;;10.38;95.46;98108.72;4932818;28;20241;-78
2023/03/14 06:03:19;;;;;;;395.85;268.48;;;;;;;10.46;94.19;98095.31;4922880;28;20243;-78
2023/03/14 06:05:50;;;;;;;406.20;292.23;;;10.40;99.90;;;10.62;92.32;98074.63;4938628;28;20270;-78
2023/03/14 06:08:17;;;;;;;413.83;304.73;;;10.50;99.90;;;10.57;91.54;98061.53;4934107;28;20236;-78
2023/03/14 06:10:44;;;;;;;421.30;316.52;;;10.60;99.90;;;10.73;90.35;98049.59;4934715;28;20375;-77
2023/03/14 06:13:12;;;;;;;410.60;295.83;;;10.60;99.90;;;10.68;89.67;98038.31;4928546;28;20239;-78
2023/03/14 06:15:39;;;;;;;425.50;309.77;;;10.60;99.90;;;10.55;90.17;98042.22;4934631;29;20289;-79
2023/03/14 06:18:06;;;;;;;413.13;305.33;;;10.50;99.90;;;10.77;88.69;98055.66;4936477;28;20227;-78
2023/03/14 06:20:38;;;;;;;402.30;295.05;;;10.70;99.90;;;10.55;89.62;98051.00;4933427;28;20259;-79
2023/03/14 06:23:07;;;;;;;401.67;286.00;;;10.40;99.90;;;10.50;90.39;98073.19;4937212;28;20253;-79
2023/03/14 06:25:35;;;;;;;411.50;289.77;;;10.50;99.90;;;10.53;90.28;98078.38;4938728;28;20264;-78
2023/03/14 06:28:02;;;;;;;404.27;296.73;;;10.40;99.90;;;10.61;90.18;98086.09;4955067;28;20238;-80
2023/03/14 06:30:29;;;;;;;401.35;288.15;;;10.50;99.90;;;10.51;90.86;98088.13;4936532;28;20775;-82
2023/03/14 06:32:56;;;;;;;413.90;305.58;;;10.40;99.90;;;10.47;91.19;98097.06;4939277;29;20324;-78
2023/03/14 06:35:23;;;;;;;404.17;282.98;;;10.40;99.90;;;10.58;90.87;98105.53;4933654;28;20258;-78
2023/03/14 06:37:51;;;;;;;400.77;284.20;;;7.30;99.90;;;10.36;92.36;98102.59;4931332;28;20242;-78
2023/03/14 06:40:18;;;;;;;420.35;300.65;;;14.80;99.90;;;10.41;92.56;98108.66;4931518;29;20238;-79
2023/03/14 06:42:45;;;;;;;409.88;305.42;;;10.40;99.90;;;10.49;92.31;98095.25;4935369;28;20226;-81
2023/03/14 06:45:13;;;;;;;403.25;295.80;;;10.40;99.90;;;10.39;92.63;98118.38;4935922;28;20309;-80
2023/03/14 06:47:40;;;;;;;407.50;296.42;;;10.30;99.90;;;10.41;92.70;98100.72;4929638;28;20323;-81
2023/03/14 06:50:09;;;;;;;401.35;295.95;;;10.40;99.90;;;10.44;92.69;98108.56;4929056;28;20281;-78
2023/03/14 06:52:37;;;;;;;402.23;298.17;;;10.40;99.90;;;10.53;92.27;98112.75;4934020;28;20281;-79
2023/03/14 06:55:05;;;;;;;417.60;300.58;;;10.60;99.90;;;10.70;90.73;98096.41;4933442;28;20299;-77
2023/03/14 06:57:32;;;;;;;408.42;309.35;;;10.50;99.90;;;10.57;91.37;98088.81;4932989;28;20234;-78
2023/03/14 06:59:59;;;;;;;401.27;299.88;;;10.50;99.90;;;10.51;91.87;98093.41;4947017;28;20306;-79
2023/03/14 07:02:26;;;;;;;408.85;287.55;;;10.50;99.90;;;10.60;91.47;98103.72;4935298;28;20262;-80
2023/03/14 07:05:10;;;;;;;410.27;324.77;;;10.50;99.90;;;10.57;91.73;98103.81;4930789;28;20239;-77
2023/03/14 07:07:37;;;;;;;405.38;296.23;;;10.50;99.90;;;10.53;92.60;98113.59;4946481;28;20244;-77
2023/03/14 07:10:05;;;;;;;404.05;299.27;;;10.40;99.90;;;10.53;92.93;98110.97;4934778;28;20242;-77
2023/03/14 07:12:32;;;;;;;406.67;289.83;;;10.50;99.90;;;10.49;93.72;98121.66;4937488;28;20242;-77
2023/03/14 07:14:59;;;;;;;393.83;281.45;;;10.40;99.90;;;10.49;94.23;98132.22;4934288;28;20262;-78
2023/03/14 07:17:43;;;;;;;404.33;286.70;;;10.40;99.90;;;10.49;94.74;98145.44;4926050;28;20231;-76
2023/03/14 07:20:12;;;;;;;402.70;294.35;;;10.40;99.90;;;10.30;96.46;98152.97;4930423;28;20242;-77
2023/03/14 07:22:39;;;;;;;404.17;286.48;;;;;;;10.22;98.39;98171.66;4941738;28;20238;-77
2023/03/14 07:25:09;;;;;;;397.02;291.83;;;;;;;10.26;98.80;98183.00;4949733;28;20277;-76
2023/03/14 07:27:36;;;;;;;404.33;285.70;;;;;;;10.20;99.81;98180.50;4934083;28;20314;-78
2023/03/14 07:30:04;;;;;;;399.60;294.15;;;10.10;99.90;;;10.19;100.00;98186.66;4931343;28;20713;-77
2023/03/14 07:32:33;;;;;;;396.58;290.48;;;;;;;10.16;100.00;98198.19;4933663;28;20345;-77
2023/03/14 07:35:00;;;;;;;396.25;274.88;;;;;;;10.22;100.00;98207.75;4934371;28;20234;-77
2023/03/14 07:37:28;;;;;;;396.45;276.85;;;;;;;10.23;100.00;98202.44;4932857;29;20262;-77
2023/03/14 07:39:55;;;;;;;397.90;280.75;;;;;;;10.33;100.00;98195.13;4933410;28;20246;-78
2023/03/14 07:42:22;;;;;;;399.58;288.65;;;10.30;99.90;;;10.43;100.00;98191.38;4932005;29;20643;-77
2023/03/14 07:44:49;;;;;;;405.65;286.77;;;;;;;10.45;100.00;98181.66;4931943;28;20677;-77
2023/03/14 07:47:17;;;;;;;401.33;285.95;;;;;;;10.57;99.43;98173.38;4931988;28;20299;-77
2023/03/14 07:49:44;;;;;;;398.90;281.08;;;10.60;99.90;;;10.68;98.45;98161.66;4931357;28;20266;-78
2023/03/14 07:52:11;;;;;;;408.33;303.63;;;10.70;99.90;;;10.74;97.27;98150.91;4936384;28;20258;-77
2023/03/14 07:54:38;;;;;;;415.08;309.35;;;;;;;10.78;96.84;98139.34;4933419;28;20242;-77
2023/03/14 07:57:05;;;;;;;415.75;303.98;;;10.80;99.90;;;10.95;95.15;98113.28;4931986;28;20324;-77
2023/03/14 07:59:32;;;;;;;408.30;303.15;;;10.90;99.90;;;11.07;94.25;98122.63;4929925;28;20265;-76
2023/03/14 08:01:59;;;;;;;403.67;314.13;;;11.00;99.90;;;11.14;93.54;98109.16;4931196;28;20237;-77
2023/03/14 08:04:27;;;;;;;415.33;328.58;;;11.00;99.90;;;11.27;92.32;98101.72;4930256;28;20269;-76
2023/03/14 08:06:54;;;;;;;409.27;307.58;;;11.10;99.90;;;11.19;92.35;98090.53;4931393;28;20770;-79
2023/03/14 08:09:21;;;;;;;403.92;311.50;;;11.10;99.90;;;11.20;91.54;98082.53;4934248;28;20262;-77
2023/03/14 08:11:48;;;;;;;411.17;322.25;;;11.10;99.90;;;11.20;91.31;98093.13;4925293;28;20238;-77
2023/03/14 08:14:15;;;;;;;414.33;339.17;;;11.10;99.90;;;11.30;91.32;98101.63;4919015;29;20309;-78
2023/03/14 08:16:42;;;;;;;415.95;344.80;;;11.20;99.90;;;11.31;91.78;98108.66;4931359;28;20309;-78
2023/03/14 08:19:09;;;;;;;413.10;336.23;;;11.20;99.90;;;11.35;91.92;98122.66;4931826;29;20306;-77
2023/03/14 08:21:36;;;;;;;414.77;333.00;;;11.20;99.90;;;11.29;91.38;98114.91;4932441;28;20297;-77
2023/03/14 08:24:03;;;;;;;412.52;329.00;;;11.20;99.90;;;11.25;91.34;98105.34;4933352;28;20246;-75
2023/03/14 08:26:30;;;;;;;418.40;343.08;;;11.20;99.90;;;11.32;91.44;98114.81;4930887;28;20245;-78
2023/03/14 08:28:57;;;;;;;414.77;347.23;;;11.20;99.90;;;11.34;92.09;98134.16;4932507;28;20270;-78
2023/03/14 08:31:25;;;;;;;471.08;350.95;;;;;;;11.16;92.19;98123.22;4962776;23;20246;-76
2023/03/14 08:33:53;;;;;;;424.73;346.73;;;;;;;11.11;93.33;98148.94;4946641;28;20234;-77
2023/03/14 08:36:20;;;;;;;421.85;342.83;;;;;;;11.12;93.65;98160.38;4949839;28;20288;-75
2023/03/14 08:38:50;;;;;;;419.67;333.27;;;;;;;11.15;94.56;98174.38;4950511;28;20897;-76
2023/03/14 08:41:17;;;;;;;425.75;349.08;;;;;;;11.29;94.77;98184.56;4956651;28;20233;-78
2023/03/14 08:43:45;;;;;;;420.08;337.67;;;;;;;11.44;94.68;98201.75;4949298;28;20312;-77
2023/03/14 08:46:12;;;;;;;420.00;339.67;;;;;;;11.39;95.39;98201.91;4945182;28;20746;-75
2023/03/14 08:48:39;;;;;;;420.80;335.98;;;;;;;11.20;95.20;98174.25;4952126;28;20253;-75
2023/03/14 08:51:12;;;;;;;424.45;344.95;;;11.20;99.90;;;11.37;96.07;98202.84;4958160;28;20240;-76
2023/03/14 08:53:40;;;;;;;423.08;357.42;;;;;;;11.52;96.37;98215.63;4952349;28;20242;-75
2023/03/14 08:58:54;;;;;;;424.02;358.45;;;;;;;11.34;96.61;98201.16;4965873;23;20264;-84
2023/03/14 09:01:23;;;;;;;410.77;337.55;;;;;;;11.37;97.91;98216.09;4955825;28;20263;-83
2023/03/14 09:03:51;;;;;;;422.02;352.90;;;;;;;11.21;99.12;98223.59;4950607;28;20237;-84
2023/03/14 09:06:19;;;;;;;415.77;350.75;;;;;;;11.38;99.72;98241.63;4944499;28;20297;-83
2023/03/14 09:08:46;;;;;;;433.92;354.65;;;;;;;11.32;100.00;98240.03;4956418;28;20616;-83
2023/03/14 09:11:14;;;;;;;416.33;344.65;;;11.30;99.90;;;11.49;100.00;98250.13;4947498;28;20234;-84
2023/03/14 09:13:42;;;;;;;424.55;366.50;;;;;;;11.43;100.00;98248.53;4954575;28;20341;-82
2023/03/14 09:16:09;;;;;;;420.65;345.55;;;;;;;11.24;100.00;98231.44;4961014;28;20269;-83
2023/03/14 09:18:37;;;;;;;413.52;344.08;;;;;;;11.15;100.00;98245.81;4950950;28;20257;-82
2023/03/14 09:21:05;;;;;;;420.05;346.98;;;13.00;99.90;;;11.31;100.00;98261.25;4958989;28;20365;-81
2023/03/14 09:23:32;;;;;;;420.95;365.17;;;;;;;11.46;100.00;98258.16;4953231;28;20233;-82
2023/03/14 09:26:00;;;;;;;415.88;353.60;;;11.30;99.90;;;11.34;100.00;98254.09;4957999;28;20235;-78
2023/03/14 09:28:28;;;;;;;413.25;348.27;;;;;;;11.41;100.00;98257.41;4957033;28;20237;-82
2023/03/14 09:30:55;;;;;;;421.08;363.88;;;;;;;11.35;100.00;98257.59;4957101;28;20324;-83
2023/03/14 09:33:23;;;;;;;420.08;347.00;;;;;;;11.24;100.00;98244.69;4952615;28;20226;-82
2023/03/14 09:35:51;;;;;;;439.27;364.02;;;;;;;11.41;100.00;98260.94;4947637;28;20580;-80
2023/03/14 09:38:20;;;;;;;416.00;366.60;;;;;;;11.57;100.00;98268.44;4952568;28;20312;-82
2023/03/14 09:40:48;;;;;;;429.77;372.48;;;11.30;99.90;;;11.40;100.00;98264.50;4956415;28;20233;-82
2023/03/14 09:43:17;;;;;;;420.38;353.75;;;11.30;99.90;;;11.34;100.00;98253.22;4964377;28;20233;-80
2023/03/14 09:45:47;;;;;;;421.35;348.88;;;11.40;99.90;;;11.51;100.00;98285.34;4961825;28;20233;-81
2023/03/14 09:48:29;;;;;;;438.08;363.10;;;11.40;99.90;;;11.48;100.00;98281.00;4940681;28;20243;-80
2023/03/14 09:51:02;;;;;;;417.42;351.35;;;11.40;99.90;;;11.49;100.00;98290.69;4960768;28;20245;-80
2023/03/14 09:53:42;;;;;;;435.77;381.73;;;11.40;99.90;;;11.51;100.00;98288.00;4959811;28;20253;-83
2023/03/14 09:56:30;;;;;;;418.27;352.92;;;11.40;99.90;;;11.53;100.00;98275.59;4965832;28;20320;-82
2023/03/14 09:59:06;;;;;;;412.15;343.98;;;11.50;99.90;;;11.68;100.00;98282.22;4968380;28;20241;-82
2023/03/14 10:01:45;;;;;;;422.52;354.52;;;11.90;99.90;;;12.18;100.00;98300.13;4972204;28;20235;-81
2023/03/14 10:04:25;;;;;;;415.85;361.55;;;12.00;99.90;;;11.92;100.00;98272.72;4962350;28;20716;-80
2023/03/14 10:06:52;;;;;;;432.20;379.65;;;11.70;99.90;;;11.81;100.00;98262.47;4957258;28;20229;-82
2023/03/14 10:09:25;;;;;;;420.27;364.05;;;11.90;99.90;;;11.99;100.00;98275.13;4960393;28;20360;-82
2023/03/14 10:11:56;;;;;;;443.23;395.95;;;11.70;99.90;;;11.67;100.00;98240.75;4962107;28;20245;-82
2023/03/14 10:14:49;;;;;;;430.98;381.17;;;11.60;99.90;;;11.70;100.00;98243.31;4959205;28;20240;-82